Calloway Corners, Louisiana
Current Conditions -  °F | °C
As of 1:58 PM on Thursday 29 Jan 2015 (Local Time) from KBAD Reporting Station
Clear Clear  
Wind Chill: 73°   Ceiling: Unl
Heat Index: 73°   Visibility: 10mi
Dew Point: 47°   Wind: 10mph
Humidity: 40%   Direction: 330°NNW
Pressure: 30.16"   Gusts: NA
Location:  32.5043°N, 93.2934°W
Report Text: KBAD 291958Z AUTO 33009KT 10SM CLR 23/09 A3016 RMK AO2 SLP215 T02290086
Loading
Personal Weather Stations






























Interactive Weather Map New forecast layout! Learn more

10-Day Weather Forecast

Advertisements
Track Severe Weather on mobile